TimeMST,TemperatureF,Dew PointF,Humidity,Sea Level PressureIn,VisibilityMPH,Wind Direction,Wind SpeedMPH,Gust SpeedMPH,PrecipitationIn,Events,Conditions,WindDirDegrees,DateUTC
12:06 AM,26.6,23.0,86,29.69,3.0,North,4.6,-,0.00,Snow,Light Snow,10,2013-02-24 07:06:00
12:13 AM,26.6,23.0,86,29.69,4.0,North,3.5,-,0.00,Snow,Light Snow,360,2013-02-24 07:13:00
12:53 AM,26.1,23.0,88,29.75,7.0,Calm,Calm,-,0.00,Snow,Light Snow,0,2013-02-24 07:53:00
1:22 AM,26.6,23.0,86,29.69,3.0,NNW,4.6,-,0.00,Snow,Light Snow,340,2013-02-24 08:22:00
1:32 AM,26.6,23.0,86,29.70,2.5,WNW,4.6,-,0.00,Snow,Light Snow,300,2013-02-24 08:32:00
1:39 AM,26.6,23.0,86,29.70,2.5,WNW,4.6,-,0.00,Snow,Light Snow,290,2013-02-24 08:39:00
1:53 AM,26.1,23.0,88,29.74,3.0,NW,4.6,-,0.00,Snow,Light Snow,310,2013-02-24 08:53:00
2:10 AM,26.6,21.2,80,29.70,2.5,WNW,8.1,-,0.00,Snow,Light Snow,300,2013-02-24 09:10:00
2:31 AM,24.8,21.2,86,29.69,3.0,NW,5.8,-,0.01,Snow,Light Snow,320,2013-02-24 09:31:00
2:53 AM,25.0,21.0,85,29.75,5.0,NNW,10.4,-,0.01,Snow,Light Snow,330,2013-02-24 09:53:00
3:53 AM,24.1,17.1,75,29.76,10.0,NNW,8.1,-,0.00,,Overcast,330,2013-02-24 10:53:00
4:40 AM,24.8,17.6,74,29.71,9.0,North,10.4,20.7,N/A,,Overcast,350,2013-02-24 11:40:00
4:43 AM,24.8,19.4,80,29.71,8.0,North,12.7,20.7,0.00,Snow,Light Snow,360,2013-02-24 11:43:00
4:53 AM,24.1,19.0,81,29.79,4.0,North,11.5,-,0.00,Snow,Light Snow,360,2013-02-24 11:53:00
5:10 AM,24.8,19.4,80,29.72,2.5,North,12.7,-,0.00,Snow,Light Snow,350,2013-02-24 12:10:00
5:32 AM,24.8,19.4,80,29.73,1.8,North,12.7,21.9,0.00,Snow,Light Snow,350,2013-02-24 12:32:00
5:41 AM,23.0,19.4,86,29.73,2.0,North,16.1,-,0.00,Snow,Light Snow,350,2013-02-24 12:41:00
5:53 AM,23.0,19.0,85,29.83,2.5,North,16.1,23.0,0.01,Snow,Light Snow,350,2013-02-24 12:53:00
5:59 AM,23.0,19.4,86,29.74,3.0,North,17.3,25.3,0.00,Snow,Light Snow,350,2013-02-24 12:59:00
6:07 AM,23.0,19.4,86,29.74,5.0,North,18.4,25.3,0.00,Snow,Light Snow,360,2013-02-24 13:07:00
6:36 AM,24.8,21.2,86,29.75,1.8,NNE,19.6,27.6,0.00,Snow,Light Snow,20,2013-02-24 13:36:00
6:43 AM,24.8,21.2,86,29.76,0.5,NNE,20.7,31.1,0.00,Snow,Light Snow,30,2013-02-24 13:43:00
6:53 AM,23.0,19.9,88,29.86,0.5,NNE,27.6,35.7,0.00,Fog-Snow,Snow,20,2013-02-24 13:53:00
7:46 AM,21.2,17.6,86,29.80,0.8,NNE,19.6,29.9,0.01,Snow,Light Snow,20,2013-02-24 14:46:00
7:53 AM,21.9,18.0,85,29.92,0.8,NNE,19.6,31.1,0.01,Snow,Light Snow,20,2013-02-24 14:53:00
8:23 AM,21.2,17.6,86,29.82,0.5,North,20.7,29.9,0.00,Fog-Snow,Snow,10,2013-02-24 15:23:00
8:32 AM,21.2,17.6,86,29.82,0.5,North,21.9,27.6,0.00,Fog-Snow,Snow,10,2013-02-24 15:32:00
8:53 AM,21.9,18.0,85,29.95,0.5,North,21.9,31.1,0.00,Snow,Light Snow,360,2013-02-24 15:53:00
9:16 AM,21.2,17.6,86,29.84,1.0,North,23.0,31.1,0.00,Snow,Light Snow,10,2013-02-24 16:16:00
9:39 AM,21.2,17.6,86,29.85,1.0,North,24.2,32.2,0.01,Snow,Light Snow,10,2013-02-24 16:39:00
9:53 AM,21.9,18.0,85,29.99,1.5,North,20.7,36.8,0.01,Snow,Light Snow,360,2013-02-24 16:53:00
9:56 AM,21.2,17.6,86,29.86,1.8,North,27.6,36.8,0.00,Snow,Light Snow,10,2013-02-24 16:56:00
10:26 AM,21.2,17.6,86,29.87,1.0,North,21.9,29.9,0.00,Snow,Light Snow,360,2013-02-24 17:26:00
10:46 AM,21.2,17.6,86,29.87,0.5,North,19.6,32.2,0.00,Snow,Light Snow,360,2013-02-24 17:46:00
10:53 AM,21.9,18.0,85,30.00,0.8,North,24.2,31.1,0.00,Snow,Light Snow,360,2013-02-24 17:53:00
11:53 AM,23.0,18.0,81,30.00,1.8,North,25.3,36.8,0.00,Snow,Light Snow,360,2013-02-24 18:53:00
12:10 PM,21.2,17.6,86,29.87,2.0,North,26.5,38.0,0.00,Snow,Light Snow,360,2013-02-24 19:10:00
12:44 PM,23.0,17.6,80,29.87,1.8,North,25.3,35.7,0.00,Snow,Light Snow,10,2013-02-24 19:44:00
12:53 PM,23.0,18.0,81,30.00,1.0,North,19.6,33.4,0.00,Snow,Light Snow,360,2013-02-24 19:53:00
1:35 PM,23.0,19.4,86,29.88,0.8,North,20.7,33.4,0.00,Snow,Light Snow,360,2013-02-24 20:35:00
1:53 PM,23.0,18.0,81,30.01,0.5,North,27.6,35.7,0.01,Snow,Snow,360,2013-02-24 20:53:00
2:09 PM,23.0,19.4,86,29.89,0.5,North,20.7,32.2,0.00,Fog-Snow,Snow,360,2013-02-24 21:09:00
2:34 PM,23.0,19.4,86,29.90,0.8,North,20.7,31.1,0.00,Snow,Light Snow,10,2013-02-24 21:34:00
2:42 PM,23.0,17.6,80,29.90,0.8,North,21.9,32.2,0.00,Snow,Light Snow,10,2013-02-24 21:42:00
2:53 PM,23.0,19.0,85,30.04,0.8,North,15.0,26.5,0.00,Snow,Light Snow,10,2013-02-24 21:53:00
3:14 PM,21.2,17.6,86,29.91,0.8,North,20.7,32.2,0.00,Snow,Light Snow,360,2013-02-24 22:14:00
3:19 PM,21.2,17.6,86,29.92,1.8,North,19.6,31.1,0.00,Snow,Light Snow,360,2013-02-24 22:19:00
3:21 PM,21.2,17.6,86,29.92,2.0,North,20.7,31.1,0.00,Snow,Light Snow,360,2013-02-24 22:21:00
3:37 PM,21.2,17.6,86,29.92,3.0,North,23.0,34.5,0.00,Snow,Light Snow,360,2013-02-24 22:37:00
3:53 PM,21.9,17.1,82,30.08,5.0,North,21.9,31.1,0.00,,Overcast,360,2013-02-24 22:53:00
4:53 PM,21.9,16.0,78,30.11,8.0,North,19.6,29.9,0.00,Snow,Light Snow,360,2013-02-24 23:53:00
5:40 PM,21.2,17.6,86,29.98,5.0,North,17.3,23.0,0.00,Snow,Light Snow,350,2013-02-25 00:40:00
5:53 PM,21.2,15.8,80,29.99,9.0,North,17.3,25.3,N/A,Snow,Light Snow,350,2013-02-25 00:53:00
6:53 PM,21.0,15.1,78,30.17,10.0,North,13.8,24.2,0.00,,Mostly Cloudy,360,2013-02-25 01:53:00
7:53 PM,19.0,14.0,81,30.19,10.0,NW,9.2,-,N/A,,Partly Cloudy,320,2013-02-25 02:53:00
8:12 PM,19.4,15.8,86,30.02,10.0,North,12.7,20.7,N/A,,Mostly Cloudy,350,2013-02-25 03:12:00
8:21 PM,19.4,15.8,86,30.02,10.0,NNW,9.2,18.4,N/A,,Overcast,340,2013-02-25 03:21:00
8:53 PM,19.9,16.0,85,30.19,10.0,North,16.1,21.9,N/A,,Overcast,360,2013-02-25 03:53:00
9:53 PM,19.0,15.1,85,30.20,10.0,North,9.2,-,N/A,,Overcast,360,2013-02-25 04:53:00
10:53 PM,16.0,12.9,88,30.20,10.0,NNW,6.9,-,N/A,,Scattered Clouds,330,2013-02-25 05:53:00
11:53 PM,12.9,9.0,84,30.20,10.0,Calm,Calm,-,N/A,,Clear,0,2013-02-25 06:53:00